sensor_id;sensor_type;location;lat;lon;timestamp;temperature;humidity
17571;DHT22;8903;52.220;20.978;2024-02-26T00:00:31;8.10;99.90
17571;DHT22;8903;52.220;20.978;2024-02-26T00:02:57;8.10;99.90
17571;DHT22;8903;52.220;20.978;2024-02-26T00:05:23;8.00;99.90
17571;DHT22;8903;52.220;20.978;2024-02-26T00:07:49;8.00;99.90
17571;DHT22;8903;52.220;20.978;2024-02-26T00:10:15;8.00;99.90
17571;DHT22;8903;52.220;20.978;2024-02-26T00:12:41;8.00;99.90
17571;DHT22;8903;52.220;20.978;2024-02-26T00:15:08;8.00;99.90
17571;DHT22;8903;52.220;20.978;2024-02-26T00:17:34;7.90;99.90
17571;DHT22;8903;52.220;20.978;2024-02-26T00:19:59;7.90;99.90
17571;DHT22;8903;52.220;20.978;2024-02-26T00:22:26;7.90;99.90
17571;DHT22;8903;52.220;20.978;2024-02-26T00:24:52;7.90;99.90
17571;DHT22;8903;52.220;20.978;2024-02-26T00:27:18;7.80;99.90
17571;DHT22;8903;52.220;20.978;2024-02-26T00:29:43;7.80;99.90
17571;DHT22;8903;52.220;20.978;2024-02-26T00:32:09;7.80;99.90
17571;DHT22;8903;52.220;20.978;2024-02-26T00:34:35;7.80;99.90
17571;DHT22;8903;52.220;20.978;2024-02-26T00:37:01;7.80;99.90
17571;DHT22;8903;52.220;20.978;2024-02-26T00:39:27;7.70;99.90
17571;DHT22;8903;52.220;20.978;2024-02-26T00:41:53;7.70;99.90
17571;DHT22;8903;52.220;20.978;2024-02-26T00:44:18;7.70;99.90
17571;DHT22;8903;52.220;20.978;2024-02-26T00:46:44;7.60;99.90
17571;DHT22;8903;52.220;20.978;2024-02-26T00:49:10;7.60;99.90
17571;DHT22;8903;52.220;20.978;2024-02-26T00:51:36;7.60;99.90
17571;DHT22;8903;52.220;20.978;2024-02-26T00:54:02;7.60;99.90
17571;DHT22;8903;52.220;20.978;2024-02-26T00:56:27;7.50;99.90
17571;DHT22;8903;52.220;20.978;2024-02-26T00:58:53;7.50;99.90
17571;DHT22;8903;52.220;20.978;2024-02-26T01:01:19;7.50;99.90
17571;DHT22;8903;52.220;20.978;2024-02-26T01:03:45;7.40;99.90
17571;DHT22;8903;52.220;20.978;2024-02-26T01:06:11;7.40;99.90
17571;DHT22;8903;52.220;20.978;2024-02-26T01:08:36;7.40;99.90
17571;DHT22;8903;52.220;20.978;2024-02-26T01:11:03;7.40;99.90
17571;DHT22;8903;52.220;20.978;2024-02-26T01:13:29;7.30;99.90
17571;DHT22;8903;52.220;20.978;2024-02-26T01:15:55;7.30;99.90
17571;DHT22;8903;52.220;20.978;2024-02-26T01:18:20;7.30;99.90
17571;DHT22;8903;52.220;20.978;2024-02-26T01:20:46;7.30;99.90
17571;DHT22;8903;52.220;20.978;2024-02-26T01:23:12;7.20;99.90
17571;DHT22;8903;52.220;20.978;2024-02-26T01:25:38;7.20;99.90
17571;DHT22;8903;52.220;20.978;2024-02-26T01:28:05;7.20;99.90
17571;DHT22;8903;52.220;20.978;2024-02-26T01:30:31;7.20;99.90
17571;DHT22;8903;52.220;20.978;2024-02-26T01:32:57;7.20;99.90
17571;DHT22;8903;52.220;20.978;2024-02-26T01:35:22;7.10;99.90
17571;DHT22;8903;52.220;20.978;2024-02-26T01:37:48;7.10;99.90
17571;DHT22;8903;52.220;20.978;2024-02-26T01:40:14;7.10;99.90
17571;DHT22;8903;52.220;20.978;2024-02-26T01:42:45;7.10;99.90
17571;DHT22;8903;52.220;20.978;2024-02-26T01:45:15;7.00;99.90
17571;DHT22;8903;52.220;20.978;2024-02-26T01:47:53;7.10;99.90
17571;DHT22;8903;52.220;20.978;2024-02-26T01:50:20;7.10;99.90
17571;DHT22;8903;52.220;20.978;2024-02-26T01:52:48;7.10;99.90
17571;DHT22;8903;52.220;20.978;2024-02-26T01:55:15;7.10;99.90
17571;DHT22;8903;52.220;20.978;2024-02-26T01:57:43;7.10;99.90
17571;DHT22;8903;52.220;20.978;2024-02-26T02:00:09;7.00;99.90
17571;DHT22;8903;52.220;20.978;2024-02-26T02:02:36;7.10;99.90
17571;DHT22;8903;52.220;20.978;2024-02-26T02:05:02;7.00;99.90
17571;DHT22;8903;52.220;20.978;2024-02-26T02:07:29;7.00;99.90
17571;DHT22;8903;52.220;20.978;2024-02-26T02:09:55;7.00;99.90
17571;DHT22;8903;52.220;20.978;2024-02-26T02:12:21;7.00;99.90
17571;DHT22;8903;52.220;20.978;2024-02-26T02:14:47;7.00;99.90
17571;DHT22;8903;52.220;20.978;2024-02-26T02:17:13;7.00;99.90
17571;DHT22;8903;52.220;20.978;2024-02-26T02:19:39;7.00;99.90
17571;DHT22;8903;52.220;20.978;2024-02-26T02:22:04;7.00;99.90
17571;DHT22;8903;52.220;20.978;2024-02-26T02:24:30;7.00;99.90
17571;DHT22;8903;52.220;20.978;2024-02-26T02:26:56;7.00;99.90
17571;DHT22;8903;52.220;20.978;2024-02-26T02:29:22;6.90;99.90
17571;DHT22;8903;52.220;20.978;2024-02-26T02:31:48;6.90;99.90
17571;DHT22;8903;52.220;20.978;2024-02-26T02:34:14;6.90;99.90
17571;DHT22;8903;52.220;20.978;2024-02-26T02:36:52;7.00;99.90
17571;DHT22;8903;52.220;20.978;2024-02-26T02:39:18;6.90;99.90
17571;DHT22;8903;52.220;20.978;2024-02-26T02:41:44;6.90;99.90
17571;DHT22;8903;52.220;20.978;2024-02-26T02:44:10;6.90;99.90
17571;DHT22;8903;52.220;20.978;2024-02-26T02:46:36;6.80;99.90
17571;DHT22;8903;52.220;20.978;2024-02-26T02:49:02;6.80;99.90
17571;DHT22;8903;52.220;20.978;2024-02-26T02:51:27;6.80;99.90
17571;DHT22;8903;52.220;20.978;2024-02-26T02:53:53;6.80;99.90
17571;DHT22;8903;52.220;20.978;2024-02-26T02:56:19;6.80;99.90
17571;DHT22;8903;52.220;20.978;2024-02-26T02:58:45;6.80;99.90
17571;DHT22;8903;52.220;20.978;2024-02-26T03:01:12;6.80;99.90
17571;DHT22;8903;52.220;20.978;2024-02-26T03:03:38;6.70;99.90
17571;DHT22;8903;52.220;20.978;2024-02-26T03:06:04;6.70;99.90
17571;DHT22;8903;52.220;20.978;2024-02-26T03:08:29;6.70;99.90
17571;DHT22;8903;52.220;20.978;2024-02-26T03:10:55;6.70;99.90
17571;DHT22;8903;52.220;20.978;2024-02-26T03:13:21;6.70;99.90
17571;DHT22;8903;52.220;20.978;2024-02-26T03:15:47;6.60;99.90
17571;DHT22;8903;52.220;20.978;2024-02-26T03:18:13;6.70;99.90
17571;DHT22;8903;52.220;20.978;2024-02-26T03:20:38;6.60;99.90
17571;DHT22;8903;52.220;20.978;2024-02-26T03:23:04;6.60;99.90
17571;DHT22;8903;52.220;20.978;2024-02-26T03:25:30;6.60;99.90
17571;DHT22;8903;52.220;20.978;2024-02-26T03:27:55;6.60;99.90
17571;DHT22;8903;52.220;20.978;2024-02-26T03:30:21;6.60;99.90
17571;DHT22;8903;52.220;20.978;2024-02-26T03:32:47;6.60;99.90
17571;DHT22;8903;52.220;20.978;2024-02-26T03:35:13;6.60;99.90
17571;DHT22;8903;52.220;20.978;2024-02-26T03:37:39;6.50;99.90
17571;DHT22;8903;52.220;20.978;2024-02-26T03:40:05;6.50;99.90
17571;DHT22;8903;52.220;20.978;2024-02-26T03:42:31;6.50;99.90
17571;DHT22;8903;52.220;20.978;2024-02-26T03:44:57;6.40;99.90
17571;DHT22;8903;52.220;20.978;2024-02-26T03:47:22;6.40;99.90
17571;DHT22;8903;52.220;20.978;2024-02-26T03:49:49;6.40;99.90
17571;DHT22;8903;52.220;20.978;2024-02-26T03:52:14;6.40;99.90
17571;DHT22;8903;52.220;20.978;2024-02-26T03:54:40;6.40;99.90
17571;DHT22;8903;52.220;20.978;2024-02-26T03:57:06;6.40;99.90
17571;DHT22;8903;52.220;20.978;2024-02-26T03:59:31;6.40;99.90
17571;DHT22;8903;52.220;20.978;2024-02-26T04:01:57;6.40;99.90
17571;DHT22;8903;52.220;20.978;2024-02-26T04:04:23;6.30;99.90
17571;DHT22;8903;52.220;20.978;2024-02-26T04:06:48;6.30;99.90
17571;DHT22;8903;52.220;20.978;2024-02-26T04:09:15;6.30;99.90
17571;DHT22;8903;52.220;20.978;2024-02-26T04:11:40;6.30;99.90
17571;DHT22;8903;52.220;20.978;2024-02-26T04:14:06;6.30;99.90
17571;DHT22;8903;52.220;20.978;2024-02-26T04:16:34;6.20;99.90
17571;DHT22;8903;52.220;20.978;2024-02-26T04:19:03;6.20;99.90
17571;DHT22;8903;52.220;20.978;2024-02-26T04:21:29;6.20;99.90
17571;DHT22;8903;52.220;20.978;2024-02-26T04:23:55;6.20;99.90
17571;DHT22;8903;52.220;20.978;2024-02-26T04:26:21;6.10;99.90
17571;DHT22;8903;52.220;20.978;2024-02-26T04:28:47;6.10;99.90
17571;DHT22;8903;52.220;20.978;2024-02-26T04:31:13;6.20;99.90
17571;DHT22;8903;52.220;20.978;2024-02-26T04:33:38;6.10;99.90
17571;DHT22;8903;52.220;20.978;2024-02-26T04:36:04;6.10;99.90
17571;DHT22;8903;52.220;20.978;2024-02-26T04:38:30;6.10;99.90
17571;DHT22;8903;52.220;20.978;2024-02-26T04:40:56;6.10;99.90
17571;DHT22;8903;52.220;20.978;2024-02-26T04:43:22;6.10;99.90
17571;DHT22;8903;52.220;20.978;2024-02-26T04:45:47;6.00;99.90
17571;DHT22;8903;52.220;20.978;2024-02-26T04:48:13;6.00;99.90
17571;DHT22;8903;52.220;20.978;2024-02-26T04:50:39;6.00;99.90
17571;DHT22;8903;52.220;20.978;2024-02-26T04:53:05;6.00;99.90
17571;DHT22;8903;52.220;20.978;2024-02-26T04:55:30;6.00;99.90
17571;DHT22;8903;52.220;20.978;2024-02-26T04:57:56;6.00;99.90
17571;DHT22;8903;52.220;20.978;2024-02-26T05:00:22;6.00;99.90
17571;DHT22;8903;52.220;20.978;2024-02-26T05:02:47;6.00;99.90
17571;DHT22;8903;52.220;20.978;2024-02-26T05:05:14;6.00;99.90
17571;DHT22;8903;52.220;20.978;2024-02-26T05:07:40;6.00;99.90
17571;DHT22;8903;52.220;20.978;2024-02-26T05:10:07;6.00;99.90
17571;DHT22;8903;52.220;20.978;2024-02-26T05:12:33;6.00;99.90
17571;DHT22;8903;52.220;20.978;2024-02-26T05:15:01;5.90;99.90
17571;DHT22;8903;52.220;20.978;2024-02-26T05:17:28;6.00;99.90
17571;DHT22;8903;52.220;20.978;2024-02-26T05:19:53;6.00;99.90
17571;DHT22;8903;52.220;20.978;2024-02-26T05:22:19;6.00;99.90
17571;DHT22;8903;52.220;20.978;2024-02-26T05:24:45;6.00;99.90
17571;DHT22;8903;52.220;20.978;2024-02-26T05:27:11;6.00;99.90
17571;DHT22;8903;52.220;20.978;2024-02-26T05:29:37;6.00;99.90
17571;DHT22;8903;52.220;20.978;2024-02-26T05:32:04;6.00;99.90
17571;DHT22;8903;52.220;20.978;2024-02-26T05:34:30;6.10;99.90
17571;DHT22;8903;52.220;20.978;2024-02-26T05:36:56;6.10;99.90
17571;DHT22;8903;52.220;20.978;2024-02-26T05:39:22;6.10;99.90
17571;DHT22;8903;52.220;20.978;2024-02-26T05:41:48;6.20;99.90
17571;DHT22;8903;52.220;20.978;2024-02-26T05:44:15;6.20;99.90
17571;DHT22;8903;52.220;20.978;2024-02-26T05:46:41;6.30;99.90
17571;DHT22;8903;52.220;20.978;2024-02-26T05:49:07;6.30;99.90
17571;DHT22;8903;52.220;20.978;2024-02-26T05:51:33;6.30;99.90
17571;DHT22;8903;52.220;20.978;2024-02-26T05:53:59;6.40;99.90
17571;DHT22;8903;52.220;20.978;2024-02-26T05:56:24;6.40;99.90
17571;DHT22;8903;52.220;20.978;2024-02-26T05:58:50;6.40;99.90
17571;DHT22;8903;52.220;20.978;2024-02-26T06:01:17;6.50;99.90
17571;DHT22;8903;52.220;20.978;2024-02-26T06:03:44;6.50;99.90
17571;DHT22;8903;52.220;20.978;2024-02-26T06:06:10;6.60;99.90
17571;DHT22;8903;52.220;20.978;2024-02-26T06:08:36;6.70;99.90
17571;DHT22;8903;52.220;20.978;2024-02-26T06:11:06;6.70;99.90
17571;DHT22;8903;52.220;20.978;2024-02-26T06:13:33;6.70;99.90
17571;DHT22;8903;52.220;20.978;2024-02-26T06:15:59;6.80;99.90
17571;DHT22;8903;52.220;20.978;2024-02-26T06:18:24;6.80;99.90
17571;DHT22;8903;52.220;20.978;2024-02-26T06:20:50;6.90;99.90
17571;DHT22;8903;52.220;20.978;2024-02-26T06:23:16;6.90;99.90
17571;DHT22;8903;52.220;20.978;2024-02-26T06:25:42;6.90;99.90
17571;DHT22;8903;52.220;20.978;2024-02-26T06:28:08;6.90;99.90
17571;DHT22;8903;52.220;20.978;2024-02-26T06:30:34;7.00;99.90
17571;DHT22;8903;52.220;20.978;2024-02-26T06:33:00;7.00;99.90
17571;DHT22;8903;52.220;20.978;2024-02-26T06:35:26;7.00;99.90
17571;DHT22;8903;52.220;20.978;2024-02-26T06:37:52;7.10;99.90
17571;DHT22;8903;52.220;20.978;2024-02-26T06:40:21;7.10;99.90
17571;DHT22;8903;52.220;20.978;2024-02-26T06:42:47;7.20;99.90
17571;DHT22;8903;52.220;20.978;2024-02-26T06:45:13;7.20;99.90
17571;DHT22;8903;52.220;20.978;2024-02-26T06:47:41;7.20;99.90
17571;DHT22;8903;52.220;20.978;2024-02-26T06:50:08;7.30;99.90
17571;DHT22;8903;52.220;20.978;2024-02-26T06:52:34;7.30;99.90
17571;DHT22;8903;52.220;20.978;2024-02-26T06:55:00;7.40;99.90
17571;DHT22;8903;52.220;20.978;2024-02-26T06:57:26;7.40;99.90
17571;DHT22;8903;52.220;20.978;2024-02-26T06:59:52;7.50;99.90
17571;DHT22;8903;52.220;20.978;2024-02-26T07:02:18;7.50;99.90
17571;DHT22;8903;52.220;20.978;2024-02-26T07:04:43;7.50;99.90
17571;DHT22;8903;52.220;20.978;2024-02-26T07:07:09;7.60;99.90
17571;DHT22;8903;52.220;20.978;2024-02-26T07:09:36;7.60;99.90
17571;DHT22;8903;52.220;20.978;2024-02-26T07:12:02;7.70;99.90
17571;DHT22;8903;52.220;20.978;2024-02-26T07:14:28;7.70;99.90
17571;DHT22;8903;52.220;20.978;2024-02-26T07:16:54;7.80;99.90
17571;DHT22;8903;52.220;20.978;2024-02-26T07:19:20;7.90;99.90
17571;DHT22;8903;52.220;20.978;2024-02-26T07:21:45;7.90;99.90
17571;DHT22;8903;52.220;20.978;2024-02-26T07:24:11;8.00;99.90
17571;DHT22;8903;52.220;20.978;2024-02-26T07:26:37;8.10;99.90
17571;DHT22;8903;52.220;20.978;2024-02-26T07:29:02;8.10;99.90
17571;DHT22;8903;52.220;20.978;2024-02-26T07:31:29;8.20;99.90
17571;DHT22;8903;52.220;20.978;2024-02-26T07:33:55;8.20;99.90
17571;DHT22;8903;52.220;20.978;2024-02-26T07:36:21;8.30;99.90
17571;DHT22;8903;52.220;20.978;2024-02-26T07:38:46;8.40;99.90
17571;DHT22;8903;52.220;20.978;2024-02-26T07:41:12;8.40;99.90
17571;DHT22;8903;52.220;20.978;2024-02-26T07:43:38;8.50;99.90
17571;DHT22;8903;52.220;20.978;2024-02-26T07:46:04;8.60;99.90
17571;DHT22;8903;52.220;20.978;2024-02-26T07:48:29;8.80;99.90
17571;DHT22;8903;52.220;20.978;2024-02-26T07:50:55;8.90;99.90
17571;DHT22;8903;52.220;20.978;2024-02-26T07:53:21;9.00;99.90
17571;DHT22;8903;52.220;20.978;2024-02-26T07:55:47;9.20;99.90
17571;DHT22;8903;52.220;20.978;2024-02-26T07:58:13;9.30;99.90
17571;DHT22;8903;52.220;20.978;2024-02-26T08:00:38;9.50;99.90
17571;DHT22;8903;52.220;20.978;2024-02-26T08:03:04;9.50;99.90
17571;DHT22;8903;52.220;20.978;2024-02-26T08:05:30;9.60;99.90
17571;DHT22;8903;52.220;20.978;2024-02-26T08:07:56;9.70;99.90
17571;DHT22;8903;52.220;20.978;2024-02-26T08:10:22;9.80;99.90
17571;DHT22;8903;52.220;20.978;2024-02-26T08:12:47;9.80;99.90
17571;DHT22;8903;52.220;20.978;2024-02-26T08:15:13;9.90;99.90
17571;DHT22;8903;52.220;20.978;2024-02-26T08:17:39;10.00;99.90
17571;DHT22;8903;52.220;20.978;2024-02-26T08:20:05;10.20;99.90
17571;DHT22;8903;52.220;20.978;2024-02-26T08:22:31;10.20;99.90
17571;DHT22;8903;52.220;20.978;2024-02-26T08:24:58;10.30;99.90
17571;DHT22;8903;52.220;20.978;2024-02-26T08:27:24;10.30;99.90
17571;DHT22;8903;52.220;20.978;2024-02-26T08:29:50;10.40;99.90
17571;DHT22;8903;52.220;20.978;2024-02-26T08:32:15;10.40;99.90
17571;DHT22;8903;52.220;20.978;2024-02-26T08:34:42;10.50;99.90
17571;DHT22;8903;52.220;20.978;2024-02-26T08:37:07;10.60;99.90
17571;DHT22;8903;52.220;20.978;2024-02-26T08:39:33;10.70;99.90
17571;DHT22;8903;52.220;20.978;2024-02-26T08:41:59;10.80;99.90
17571;DHT22;8903;52.220;20.978;2024-02-26T08:44:25;10.90;99.90
17571;DHT22;8903;52.220;20.978;2024-02-26T08:46:51;10.90;99.90
17571;DHT22;8903;52.220;20.978;2024-02-26T08:49:17;11.00;99.90
17571;DHT22;8903;52.220;20.978;2024-02-26T08:51:43;11.00;99.90
17571;DHT22;8903;52.220;20.978;2024-02-26T08:54:09;11.00;99.90
17571;DHT22;8903;52.220;20.978;2024-02-26T08:56:35;11.00;99.90
17571;DHT22;8903;52.220;20.978;2024-02-26T08:59:01;11.00;99.90
17571;DHT22;8903;52.220;20.978;2024-02-26T09:01:38;11.00;99.90
17571;DHT22;8903;52.220;20.978;2024-02-26T09:04:03;11.00;99.90
17571;DHT22;8903;52.220;20.978;2024-02-26T09:06:29;11.10;99.90
17571;DHT22;8903;52.220;20.978;2024-02-26T09:08:55;11.10;99.90
17571;DHT22;8903;52.220;20.978;2024-02-26T09:11:21;11.20;99.90
17571;DHT22;8903;52.220;20.978;2024-02-26T09:13:47;11.30;99.90
17571;DHT22;8903;52.220;20.978;2024-02-26T09:16:13;11.30;99.90
17571;DHT22;8903;52.220;20.978;2024-02-26T09:18:39;11.40;99.90
17571;DHT22;8903;52.220;20.978;2024-02-26T09:21:05;11.50;99.90
17571;DHT22;8903;52.220;20.978;2024-02-26T09:23:32;11.50;99.90
17571;DHT22;8903;52.220;20.978;2024-02-26T09:26:00;11.60;99.90
17571;DHT22;8903;52.220;20.978;2024-02-26T09:28:26;11.50;99.90
17571;DHT22;8903;52.220;20.978;2024-02-26T09:30:51;11.60;99.90
17571;DHT22;8903;52.220;20.978;2024-02-26T09:33:17;11.70;99.90
17571;DHT22;8903;52.220;20.978;2024-02-26T09:35:43;11.90;99.90
17571;DHT22;8903;52.220;20.978;2024-02-26T09:38:09;11.90;99.90
17571;DHT22;8903;52.220;20.978;2024-02-26T09:40:34;12.00;99.90
17571;DHT22;8903;52.220;20.978;2024-02-26T09:43:00;12.10;99.90
17571;DHT22;8903;52.220;20.978;2024-02-26T09:45:30;12.20;99.90
17571;DHT22;8903;52.220;20.978;2024-02-26T09:47:58;12.20;99.90
17571;DHT22;8903;52.220;20.978;2024-02-26T09:50:24;12.20;99.90
17571;DHT22;8903;52.220;20.978;2024-02-26T09:52:51;12.20;99.90
17571;DHT22;8903;52.220;20.978;2024-02-26T09:55:17;12.20;99.90
17571;DHT22;8903;52.220;20.978;2024-02-26T09:57:48;12.30;99.90
17571;DHT22;8903;52.220;20.978;2024-02-26T10:00:21;12.30;99.90
17571;DHT22;8903;52.220;20.978;2024-02-26T10:02:47;12.40;99.90
17571;DHT22;8903;52.220;20.978;2024-02-26T10:05:18;12.40;99.90
17571;DHT22;8903;52.220;20.978;2024-02-26T10:07:48;12.40;99.90
17571;DHT22;8903;52.220;20.978;2024-02-26T10:10:14;12.40;99.90
17571;DHT22;8903;52.220;20.978;2024-02-26T10:12:40;12.50;99.90
17571;DHT22;8903;52.220;20.978;2024-02-26T10:15:06;12.50;99.90
17571;DHT22;8903;52.220;20.978;2024-02-26T10:17:31;12.50;99.90
17571;DHT22;8903;52.220;20.978;2024-02-26T10:20:14;12.60;99.90
17571;DHT22;8903;52.220;20.978;2024-02-26T10:22:44;12.60;99.90
17571;DHT22;8903;52.220;20.978;2024-02-26T10:25:10;12.60;99.90
17571;DHT22;8903;52.220;20.978;2024-02-26T10:27:36;12.60;99.90
17571;DHT22;8903;52.220;20.978;2024-02-26T10:30:19;12.60;99.90
17571;DHT22;8903;52.220;20.978;2024-02-26T10:32:46;12.60;99.90
17571;DHT22;8903;52.220;20.978;2024-02-26T10:35:13;12.40;99.90
17571;DHT22;8903;52.220;20.978;2024-02-26T10:37:42;12.40;99.90
17571;DHT22;8903;52.220;20.978;2024-02-26T10:40:14;12.40;99.90
17571;DHT22;8903;52.220;20.978;2024-02-26T10:42:42;12.50;99.90
17571;DHT22;8903;52.220;20.978;2024-02-26T10:45:09;12.50;99.90
17571;DHT22;8903;52.220;20.978;2024-02-26T10:47:36;12.50;99.90
17571;DHT22;8903;52.220;20.978;2024-02-26T10:50:05;12.40;99.90
17571;DHT22;8903;52.220;20.978;2024-02-26T10:52:35;12.40;99.90
17571;DHT22;8903;52.220;20.978;2024-02-26T10:55:03;12.30;99.90
17571;DHT22;8903;52.220;20.978;2024-02-26T10:57:33;12.30;99.90
17571;DHT22;8903;52.220;20.978;2024-02-26T11:00:00;12.30;99.90
17571;DHT22;8903;52.220;20.978;2024-02-26T11:02:27;12.30;99.90
17571;DHT22;8903;52.220;20.978;2024-02-26T11:04:53;12.20;99.90
17571;DHT22;8903;52.220;20.978;2024-02-26T11:07:20;12.20;99.90
17571;DHT22;8903;52.220;20.978;2024-02-26T11:09:51;12.10;99.90
17571;DHT22;8903;52.220;20.978;2024-02-26T11:12:20;12.20;99.90
17571;DHT22;8903;52.220;20.978;2024-02-26T11:14:49;12.10;99.90
17571;DHT22;8903;52.220;20.978;2024-02-26T11:17:21;12.20;99.90
17571;DHT22;8903;52.220;20.978;2024-02-26T11:19:48;12.30;99.90
17571;DHT22;8903;52.220;20.978;2024-02-26T11:22:15;12.30;99.90
17571;DHT22;8903;52.220;20.978;2024-02-26T11:24:41;12.30;99.90
17571;DHT22;8903;52.220;20.978;2024-02-26T11:27:10;12.40;99.90
17571;DHT22;8903;52.220;20.978;2024-02-26T11:29:55;12.60;99.90
17571;DHT22;8903;52.220;20.978;2024-02-26T11:32:23;12.80;99.90
17571;DHT22;8903;52.220;20.978;2024-02-26T11:34:49;12.80;99.90
17571;DHT22;8903;52.220;20.978;2024-02-26T11:37:19;13.00;99.90
17571;DHT22;8903;52.220;20.978;2024-02-26T11:39:46;13.00;99.90
17571;DHT22;8903;52.220;20.978;2024-02-26T11:42:14;13.00;99.90
17571;DHT22;8903;52.220;20.978;2024-02-26T11:44:40;13.10;99.90
17571;DHT22;8903;52.220;20.978;2024-02-26T11:47:14;13.20;99.90
17571;DHT22;8903;52.220;20.978;2024-02-26T11:49:46;13.20;99.90
17571;DHT22;8903;52.220;20.978;2024-02-26T11:52:13;13.30;99.90
17571;DHT22;8903;52.220;20.978;2024-02-26T12:00:15;14.00;99.90
17571;DHT22;8903;52.220;20.978;2024-02-26T12:02:51;14.30;99.90
17571;DHT22;8903;52.220;20.978;2024-02-26T12:05:24;14.60;99.90
17571;DHT22;8903;52.220;20.978;2024-02-26T12:08:14;14.90;99.90
17571;DHT22;8903;52.220;20.978;2024-02-26T12:10:42;15.10;99.90
17571;DHT22;8903;52.220;20.978;2024-02-26T12:13:14;15.20;99.90
17571;DHT22;8903;52.220;20.978;2024-02-26T12:15:45;15.30;99.90
17571;DHT22;8903;52.220;20.978;2024-02-26T12:18:17;15.40;99.90
17571;DHT22;8903;52.220;20.978;2024-02-26T12:20:43;15.50;99.90
17571;DHT22;8903;52.220;20.978;2024-02-26T12:23:15;15.60;99.90
17571;DHT22;8903;52.220;20.978;2024-02-26T12:25:45;15.80;99.90
17571;DHT22;8903;52.220;20.978;2024-02-26T12:28:14;16.20;99.90
17571;DHT22;8903;52.220;20.978;2024-02-26T12:30:40;16.60;99.90
17571;DHT22;8903;52.220;20.978;2024-02-26T12:33:07;16.80;99.90
17571;DHT22;8903;52.220;20.978;2024-02-26T12:35:35;16.80;99.90
17571;DHT22;8903;52.220;20.978;2024-02-26T12:38:01;16.80;99.90
17571;DHT22;8903;52.220;20.978;2024-02-26T12:40:29;16.90;99.90
17571;DHT22;8903;52.220;20.978;2024-02-26T12:42:55;17.20;99.90
17571;DHT22;8903;52.220;20.978;2024-02-26T12:45:21;17.60;99.90
17571;DHT22;8903;52.220;20.978;2024-02-26T12:47:50;17.80;99.90
17571;DHT22;8903;52.220;20.978;2024-02-26T12:50:16;18.30;99.90
17571;DHT22;8903;52.220;20.978;2024-02-26T12:52:47;18.60;99.90
17571;DHT22;8903;52.220;20.978;2024-02-26T12:55:20;18.60;99.90
17571;DHT22;8903;52.220;20.978;2024-02-26T12:57:46;18.80;99.90
17571;DHT22;8903;52.220;20.978;2024-02-26T13:00:20;18.90;99.90
17571;DHT22;8903;52.220;20.978;2024-02-26T13:02:48;18.90;99.90
17571;DHT22;8903;52.220;20.978;2024-02-26T13:05:16;18.80;99.90
17571;DHT22;8903;52.220;20.978;2024-02-26T13:07:46;18.70;99.90
17571;DHT22;8903;52.220;20.978;2024-02-26T13:10:16;18.50;99.90
17571;DHT22;8903;52.220;20.978;2024-02-26T13:12:44;18.20;99.90
17571;DHT22;8903;52.220;20.978;2024-02-26T13:15:15;17.90;99.90
17571;DHT22;8903;52.220;20.978;2024-02-26T13:17:41;17.60;99.90
17571;DHT22;8903;52.220;20.978;2024-02-26T13:20:08;17.50;99.90
17571;DHT22;8903;52.220;20.978;2024-02-26T13:22:35;17.50;99.90
17571;DHT22;8903;52.220;20.978;2024-02-26T13:25:01;17.40;99.90
17571;DHT22;8903;52.220;20.978;2024-02-26T13:27:30;17.40;99.90
17571;DHT22;8903;52.220;20.978;2024-02-26T13:30:12;17.40;99.90
17571;DHT22;8903;52.220;20.978;2024-02-26T13:32:40;17.40;99.90
17571;DHT22;8903;52.220;20.978;2024-02-26T13:35:10;17.40;99.90
17571;DHT22;8903;52.220;20.978;2024-02-26T13:37:37;17.40;99.90
17571;DHT22;8903;52.220;20.978;2024-02-26T13:40:11;17.40;99.90
17571;DHT22;8903;52.220;20.978;2024-02-26T13:42:39;17.40;99.90
17571;DHT22;8903;52.220;20.978;2024-02-26T13:45:08;17.40;99.90
17571;DHT22;8903;52.220;20.978;2024-02-26T13:47:37;17.40;99.90
17571;DHT22;8903;52.220;20.978;2024-02-26T13:50:03;17.30;99.90
17571;DHT22;8903;52.220;20.978;2024-02-26T13:52:29;17.30;99.90
17571;DHT22;8903;52.220;20.978;2024-02-26T13:55:00;17.20;99.90
17571;DHT22;8903;52.220;20.978;2024-02-26T13:57:26;17.10;99.90
17571;DHT22;8903;52.220;20.978;2024-02-26T13:59:52;17.00;99.90
17571;DHT22;8903;52.220;20.978;2024-02-26T14:02:18;16.90;99.90
17571;DHT22;8903;52.220;20.978;2024-02-26T14:04:43;16.80;99.90
17571;DHT22;8903;52.220;20.978;2024-02-26T14:07:14;16.60;99.90
17571;DHT22;8903;52.220;20.978;2024-02-26T14:09:43;16.40;99.90
17571;DHT22;8903;52.220;20.978;2024-02-26T14:12:09;16.20;99.90
17571;DHT22;8903;52.220;20.978;2024-02-26T14:14:38;16.10;99.90
17571;DHT22;8903;52.220;20.978;2024-02-26T14:17:11;16.00;99.90
17571;DHT22;8903;52.220;20.978;2024-02-26T14:19:38;15.90;99.90
17571;DHT22;8903;52.220;20.978;2024-02-26T14:22:06;15.70;99.90
17571;DHT22;8903;52.220;20.978;2024-02-26T14:24:32;15.70;99.90
17571;DHT22;8903;52.220;20.978;2024-02-26T14:27:09;15.60;99.90
17571;DHT22;8903;52.220;20.978;2024-02-26T14:29:54;15.50;99.90
17571;DHT22;8903;52.220;20.978;2024-02-26T14:32:43;15.40;99.90
17571;DHT22;8903;52.220;20.978;2024-02-26T14:35:09;15.20;99.90
17571;DHT22;8903;52.220;20.978;2024-02-26T14:37:36;15.10;99.90
17571;DHT22;8903;52.220;20.978;2024-02-26T14:40:02;15.10;99.90
17571;DHT22;8903;52.220;20.978;2024-02-26T14:42:34;15.00;99.90
17571;DHT22;8903;52.220;20.978;2024-02-26T14:45:00;15.00;99.90
17571;DHT22;8903;52.220;20.978;2024-02-26T14:47:26;15.00;99.90
17571;DHT22;8903;52.220;20.978;2024-02-26T14:49:57;15.00;99.90
17571;DHT22;8903;52.220;20.978;2024-02-26T14:52:23;14.90;99.90
17571;DHT22;8903;52.220;20.978;2024-02-26T14:54:49;14.90;99.90
17571;DHT22;8903;52.220;20.978;2024-02-26T14:57:16;14.90;99.90
17571;DHT22;8903;52.220;20.978;2024-02-26T14:59:42;14.90;99.90
17571;DHT22;8903;52.220;20.978;2024-02-26T15:02:17;14.90;99.90
17571;DHT22;8903;52.220;20.978;2024-02-26T15:04:43;14.80;99.90
17571;DHT22;8903;52.220;20.978;2024-02-26T15:07:09;14.80;99.90
17571;DHT22;8903;52.220;20.978;2024-02-26T15:09:38;14.80;99.90
17571;DHT22;8903;52.220;20.978;2024-02-26T15:12:05;14.70;99.90
17571;DHT22;8903;52.220;20.978;2024-02-26T15:14:35;14.50;99.90
17571;DHT22;8903;52.220;20.978;2024-02-26T15:17:00;14.40;99.90
17571;DHT22;8903;52.220;20.978;2024-02-26T15:19:26;14.40;99.90
17571;DHT22;8903;52.220;20.978;2024-02-26T15:21:52;14.30;99.90
17571;DHT22;8903;52.220;20.978;2024-02-26T15:24:18;14.30;99.90
17571;DHT22;8903;52.220;20.978;2024-02-26T15:26:45;14.30;99.90
17571;DHT22;8903;52.220;20.978;2024-02-26T15:29:11;14.30;99.90
17571;DHT22;8903;52.220;20.978;2024-02-26T15:31:40;14.20;99.90
17571;DHT22;8903;52.220;20.978;2024-02-26T15:34:05;14.10;99.90
17571;DHT22;8903;52.220;20.978;2024-02-26T15:36:31;14.20;99.90
17571;DHT22;8903;52.220;20.978;2024-02-26T15:38:57;14.10;99.90
17571;DHT22;8903;52.220;20.978;2024-02-26T15:41:23;14.00;99.90
17571;DHT22;8903;52.220;20.978;2024-02-26T15:43:48;13.90;99.90